Buoy 41991

sailwx.info

Track history (hours):
 
Tides and Currents Weather Stations Pressure Air Temp Water Temp Dewpoint Dewpoint Depression Visibility Wind Speed Wind Dir Waves Ship Positions

Drifting buoy 41991

Last reported at 2017-Apr-23 11:16 UTC. Time now 2017-Apr-23 11:52 UTC.
Position N 27°21' W 066°08'.

Water temperature 23.7 ° C

Date/timePositionNaut miles runAvg speedWind from/ knotsBaromVisibWave heightAir tempDewpointWater temp
2017-Apr-23 11:16N 27°21' W 066°08'0 0.0 23.7
2017-Apr-23 11:10N 27°21' W 066°08'0 0.0 23.7
2017-Apr-23 10:33N 27°21' W 066°08'1 0.7 23.7
2017-Apr-23 09:39N 27°20' W 066°08'0 0.0 23.7
2017-Apr-23 09:32N 27°20' W 066°08'0 0.0 23.7
2017-Apr-23 09:22N 27°20' W 066°08'1 8.0 23.8
2017-Apr-23 09:18N 27°20' W 066°08'1 0.7 23.8
2017-Apr-23 07:36N 27°19' W 066°08'3182.8 23.8
2017-Apr-23 07:35N 27°16' W 066°07'0 0.0 23.9
2017-Apr-23 05:56N 27°16' W 066°07'0 0.0 23.8
2017-Apr-23 02:33N 27°16' W 066°07'1 4.6 23.9
2017-Apr-23 02:26N 27°16' W 066°07'1 0.7 23.9
2017-Apr-23 01:43N 27°16' W 066°06'121.3 24.0
2017-Apr-23 01:40N 27°16' W 066°07'1 1.0 24.0
2017-Apr-23 00:52N 27°16' W 066°07'0 0.0 24.0
2017-Apr-23 00:50N 27°16' W 066°07'1 8.0 24.0
2017-Apr-23 00:46N 27°16' W 066°06'1 1.9 24.0
2017-Apr-23 00:21N 27°15' W 066°07'0 0.0 24.2
2017-Apr-23 00:05N 27°15' W 066°07'1 0.5 24.2
2017-Apr-22 22:47N 27°14' W 066°07'0 0.0 24.4
2017-Apr-22 22:38N 27°14' W 066°07'1 2.9 24.5
2017-Apr-22 22:27N 27°14' W 066°06'1 3.0 24.5
2017-Apr-22 22:15N 27°14' W 066°06'1 2.9 24.6
2017-Apr-22 22:04N 27°14' W 066°05'0 0.0 24.7
2017-Apr-22 21:00N 27°14' W 066°05'0 0.0 24.9
2017-Apr-22 20:53N 27°14' W 066°05'260.0
2017-Apr-22 20:51N 27°13' W 066°04'0 0.0 25.0
2017-Apr-22 20:31N 27°13' W 066°04'0 0.0 25.1
2017-Apr-22 19:16N 27°13' W 066°04'0 0.0 25.1
2017-Apr-22 19:11N 27°13' W 066°04'1 6.4 25.1
2017-Apr-22 19:06N 27°13' W 066°03'1 0.5 25.1
2017-Apr-22 17:33N 27°12' W 066°02'112.0 24.7
2017-Apr-22 17:29N 27°11' W 066°02'0 0.0 24.7
2017-Apr-22 15:17N 27°11' W 066°02'0 0.0 24.3
2017-Apr-22 15:14N 27°11' W 066°02'0 0.0 24.3
2017-Apr-22 14:33N 27°11' W 066°02'1 8.0 24.0
2017-Apr-22 14:29N 27°11' W 066°01'110.7 24.0
2017-Apr-22 14:26N 27°11' W 066°01'1 0.6 24.0
2017-Apr-22 13:36N 27°11' W 066°01'0 0.0 23.6
2017-Apr-22 13:34N 27°11' W 066°01'0 0.0 23.6
2017-Apr-22 13:04N 27°11' W 066°01'1 8.0 23.6
2017-Apr-22 13:00N 27°11' W 066°01'0 0.0 23.6
2017-Apr-22 12:56N 27°11' W 066°01'0 0.0 23.6
2017-Apr-22 12:49N 27°11' W 066°01'1 2.7
2017-Apr-22 12:37N 27°11' W 066°01'1 1.4 23.5
2017-Apr-22 11:45N 27°11' W 066°00'0 0.0 23.5
2017-Apr-22 11:25N 27°11' W 066°00'0 0.0 23.5
2017-Apr-22 11:17N 27°11' W 066°00'0 0.0 23.5
2017-Apr-22 10:57N 27°11' W 066°00'0 0.0 23.5
2017-Apr-22 10:50N 27°11' W 066°00'0 0.0 23.5
2017-Apr-22 10:07N 27°11' W 066°00'1 6.4 23.4
2017-Apr-22 10:02N 27°11' W 065°59'0 0.0 23.4
2017-Apr-22 09:39N 27°11' W 065°59'0 0.0 23.5
2017-Apr-22 09:33N 27°11' W 065°59'112.0 23.5
2017-Apr-22 09:30N 27°11' W 065°59'0 0.0 23.5
2017-Apr-22 09:19N 27°11' W 065°59'1 8.0 23.5
2017-Apr-22 09:15N 27°11' W 065°59'0 0.0 23.5
2017-Apr-22 08:29N 27°11' W 065°59'0 0.0 23.4
2017-Apr-22 07:51N 27°11' W 065°59'116.1 23.4
2017-Apr-22 07:48N 27°12' W 065°58'0 0.0 23.4
2017-Apr-22 06:10N 27°12' W 065°58'1 0.2 23.4
2017-Apr-22 02:52N 27°11' W 065°58'112.0 23.3
2017-Apr-22 02:48N 27°11' W 065°57'1 0.9 23.3
2017-Apr-22 02:06N 27°11' W 065°57'0 0.0 23.4
2017-Apr-22 02:00N 27°11' W 065°57'1 0.9 23.4
2017-Apr-22 01:07N 27°11' W 065°56'0 0.0 23.4
2017-Apr-22 00:33N 27°11' W 065°56'0 0.0 23.4
2017-Apr-22 00:26N 27°11' W 065°56'2 7.4 23.4
2017-Apr-22 00:13N 27°11' W 065°55'0 0.0 23.4
2017-Apr-21 23:29N 27°11' W 065°55'1 1.0 23.4
2017-Apr-21 22:58N 27°11' W 065°55'0 0.0 23.4
2017-Apr-21 22:51N 27°11' W 065°55'116.0
2017-Apr-21 22:49N 27°11' W 065°55'0 0.0 23.5
2017-Apr-21 22:48N 27°11' W 065°55'0 0.0 23.5
2017-Apr-21 22:37N 27°11' W 065°55'1 0.9 23.5
2017-Apr-21 21:18N 27°10' W 065°53'1 4.0 23.6
2017-Apr-21 21:06N 27°10' W 065°54'0 0.0 23.6
2017-Apr-21 21:04N 27°10' W 065°54'116.1 23.6
2017-Apr-21 21:01N 27°10' W 065°53'0 0.0 23.6
2017-Apr-21 20:52N 27°10' W 065°53'387.8 23.6
2017-Apr-21 20:50N 27°11' W 065°50'0 0.0 23.6
2017-Apr-21 19:26N 27°11' W 065°50'0 0.0 23.6
2017-Apr-21 19:22N 27°11' W 065°50'0 0.0 23.6
2017-Apr-21 19:19N 27°11' W 065°50'1 0.4 23.6
2017-Apr-21 17:44N 27°11' W 065°50'213.7 23.6
2017-Apr-21 17:37N 27°11' W 065°49'0 0.0
2017-Apr-21 15:36N 27°11' W 065°49'1 1.4 23.4
2017-Apr-21 14:51N 27°11' W 065°47'0 0.0 23.3
2017-Apr-21 14:48N 27°11' W 065°47'1 0.7 23.3
2017-Apr-21 13:53N 27°11' W 065°47'1 0.8 23.2
2017-Apr-21 13:12N 27°11' W 065°47'0 0.0 23.2
2017-Apr-21 13:06N 27°11' W 065°47'1 1.2 23.2
2017-Apr-21 12:13N 27°11' W 065°46'0 0.0 23.1
2017-Apr-21 11:37N 27°11' W 065°46'1 5.1 23.1
2017-Apr-21 11:30N 27°12' W 065°46'1 6.4 23.1
2017-Apr-21 11:25N 27°12' W 065°45'0 0.0 23.1
2017-Apr-21 10:40N 27°12' W 065°45'0 0.0 23.1
2017-Apr-21 10:36N 27°12' W 065°45'112.0 23.1
2017-Apr-21 10:33N 27°13' W 065°45'1 1.2 23.1
2017-Apr-21 09:52N 27°12' W 065°44'0 0.0 23.1
2017-Apr-21 09:45N 27°12' W 065°44'1 9.0 23.1
2017-Apr-21 09:41N 27°13' W 065°44'0 0.0 23.1
2017-Apr-21 09:02N 27°13' W 065°44'1 9.6 23.2
2017-Apr-21 08:57N 27°13' W 065°44'0 0.0 23.2
2017-Apr-21 08:05N 27°13' W 065°44'1 5.3 23.2
2017-Apr-21 07:59N 27°13' W 065°44'1 0.5 23.2
2017-Apr-21 06:21N 27°14' W 065°44'2 0.6 23.2
2017-Apr-21 03:12N 27°15' W 065°42'0 0.0 23.2
2017-Apr-21 03:09N 27°15' W 065°42'0 0.0 23.2
2017-Apr-21 02:26N 27°15' W 065°42'1 4.6 23.2
2017-Apr-21 02:19N 27°15' W 065°41'0 0.0 23.2
2017-Apr-21 01:34N 27°15' W 065°41'1 3.6 23.2
2017-Apr-21 01:25N 27°15' W 065°41'1 0.8 23.2
2017-Apr-21 00:44N 27°15' W 065°40'0 0.0 23.2
2017-Apr-21 00:41N 27°15' W 065°40'1 0.8 23.2
2017-Apr-20 23:53N 27°16' W 065°40'0 0.0 23.2
2017-Apr-20 23:31N 27°16' W 065°40'0 0.0 23.2
2017-Apr-20 23:22N 27°16' W 065°40'0 0.0 23.3
2017-Apr-20 23:06N 27°16' W 065°40'0 0.0 23.3
2017-Apr-20 23:04N 27°16' W 065°40'0 0.0 23.3
2017-Apr-20 23:03N 27°16' W 065°40'118.0 23.3
2017-Apr-20 23:01N 27°16' W 065°40'0 0.0 23.3
2017-Apr-20 21:51N 27°16' W 065°40'1 1.3 23.4
2017-Apr-20 21:26N 27°16' W 065°40'1 5.1 23.4
2017-Apr-20 21:19N 27°17' W 065°40'0 0.0 23.4
2017-Apr-20 21:14N 27°17' W 065°40'0 0.0 23.4
2017-Apr-20 19:38N 27°17' W 065°40'1 4.0 23.4
2017-Apr-20 19:30N 27°17' W 065°40'1 0.3 23.4
2017-Apr-20 17:52N 27°17' W 065°40'2 1.0 23.4
2017-Apr-20 15:56N 27°18' W 065°38'0 0.0 23.3
2017-Apr-20 15:07N 27°18' W 065°38'112.0 23.2
2017-Apr-20 15:03N 27°19' W 065°37'0 0.0 23.2
2017-Apr-20 14:18N 27°19' W 065°37'1 1.0 23.2
2017-Apr-20 13:32N 27°19' W 065°38'1 8.0 23.2
2017-Apr-20 13:28N 27°19' W 065°37'0 0.0 23.2
2017-Apr-20 13:25N 27°19' W 065°37'1 0.7 23.2
2017-Apr-20 12:31N 27°20' W 065°37'0 0.0 23.2
2017-Apr-20 11:47N 27°20' W 065°37'0 0.0 23.2
2017-Apr-20 11:43N 27°20' W 065°37'1 1.0 23.2
2017-Apr-20 11:06N 27°20' W 065°37'1 0.6 23.2
2017-Apr-20 10:02N 27°21' W 065°37'0 0.0 23.2
2017-Apr-20 09:53N 27°21' W 065°37'0 0.0 23.2
2017-Apr-20 09:33N 27°21' W 065°37'1 5.1 23.2
2017-Apr-20 09:26N 27°22' W 065°37'0 0.0 23.2
2017-Apr-20 08:16N 27°22' W 065°37'0 0.0 23.2
2017-Apr-20 08:13N 27°22' W 065°37'1 0.8 23.2
2017-Apr-20 06:33N 27°23' W 065°38'2 0.6 23.2
2017-Apr-20 03:29N 27°25' W 065°38'0 0.0 23.3
2017-Apr-20 02:46N 27°25' W 065°38'1 9.6 23.3
2017-Apr-20 02:41N 27°25' W 065°39'0 0.0 23.3
2017-Apr-20 01:51N 27°25' W 065°39'112.0 23.3
2017-Apr-20 01:48N 27°26' W 065°39'0 0.0 23.3
2017-Apr-20 01:07N 27°26' W 065°39'0 0.0 23.3
2017-Apr-20 00:59N 27°26' W 065°39'0 0.0 23.3
2017-Apr-20 00:56N 27°26' W 065°39'0 0.0 23.3
2017-Apr-20 00:15N 27°26' W 065°39'0 0.0 23.3
2017-Apr-20 00:08N 27°26' W 065°39'118.0 23.3
2017-Apr-20 00:06N 27°26' W 065°39'0 0.0 23.4
2017-Apr-20 00:01N 27°26' W 065°39'0 0.0 23.4
2017-Apr-19 23:25N 27°26' W 065°39'0 0.0 23.4
2017-Apr-19 23:18N 27°26' W 065°39'1 5.3 23.4
2017-Apr-19 23:12N 27°26' W 065°40'1 0.9 23.4
2017-Apr-19 22:21N 27°27' W 065°40'0 0.0 23.5
2017-Apr-19 21:49N 27°27' W 065°40'1 8.0 23.5
2017-Apr-19 21:40N 27°28' W 065°40'0 0.0 23.5
2017-Apr-19 21:31N 27°28' W 065°40'0 0.0 23.5
2017-Apr-19 19:49N 27°28' W 065°40'112.0 23.6
2017-Apr-19 19:46N 27°29' W 065°40'1 8.0 23.6
2017-Apr-19 19:40N 27°29' W 065°41'0 0.0 23.6
2017-Apr-19 18:06N 27°29' W 065°41'113.1 23.6
2017-Apr-19 18:00N 27°31' W 065°41'0 0.0 23.6
2017-Apr-19 15:31N 27°31' W 065°41'1 0.6 23.5
2017-Apr-19 14:41N 27°31' W 065°42'1 6.9 23.5
2017-Apr-19 14:34N 27°31' W 065°43'0 0.0 23.5
2017-Apr-19 13:53N 27°31' W 065°43'1 1.8 23.4
2017-Apr-19 13:35N 27°31' W 065°42'0 0.0 23.4
2017-Apr-19 12:57N 27°31' W 065°42'1 1.7 23.4
2017-Apr-19 12:14N 27°32' W 065°43'0 0.0 23.4
2017-Apr-19 12:00N 27°32' W 065°43'0 0.0 23.4
2017-Apr-19 11:55N 27°32' W 065°43'1 8.0 23.4
2017-Apr-19 11:49N 27°32' W 065°44'0 0.0 23.4
2017-Apr-19 11:41N 27°32' W 065°44'0 0.0 23.4
2017-Apr-19 10:33N 27°32' W 065°44'0 0.0 23.4
2017-Apr-19 10:19N 27°32' W 065°44'0 0.0 23.4
2017-Apr-19 10:13N 27°32' W 065°44'1 2.0 23.4
2017-Apr-19 09:57N 27°32' W 065°44'1 0.4 23.4
2017-Apr-19 08:28N 27°33' W 065°44'0 0.0 23.4
2017-Apr-19 08:24N 27°33' W 065°44'1 6.9 23.4
2017-Apr-19 08:17N 27°34' W 065°45'0 0.0
2017-Apr-19 06:48N 27°34' W 065°45'115.8 23.3
2017-Apr-19 06:43N 27°35' W 065°46'0 0.0 23.3
2017-Apr-19 03:03N 27°35' W 065°46'0 0.0 23.4
2017-Apr-19 02:15N 27°35' W 065°46'1 5.3 23.4
2017-Apr-19 02:06N 27°35' W 065°46'0 0.0 23.4
2017-Apr-19 01:31N 27°35' W 065°46'0 0.0 23.4
2017-Apr-19 01:25N 27°35' W 065°46'0 0.0 23.4
2017-Apr-19 01:22N 27°35' W 065°46'0 0.0 23.4
2017-Apr-19 00:35N 27°35' W 065°46'1 6.9 23.5
2017-Apr-19 00:28N 27°36' W 065°46'0 0.0 23.5
2017-Apr-18 23:47N 27°36' W 065°46'0 0.0 23.5
2017-Apr-18 23:29N 27°36' W 065°46'0 0.0 23.5
2017-Apr-18 23:24N 27°36' W 065°46'1 1.9 23.5
2017-Apr-18 22:50N 27°36' W 065°47'0 0.0 23.5
2017-Apr-18 22:47N 27°36' W 065°47'0 0.0 23.5
2017-Apr-18 22:14N 27°36' W 065°47'1 4.8 23.6
2017-Apr-18 22:04N 27°37' W 065°46'0 0.0 23.6
2017-Apr-18 21:51N 27°37' W 065°46'0 0.0 23.6
2017-Apr-18 21:44N 27°37' W 065°46'0 0.0 23.6
2017-Apr-18 21:12N 27°37' W 065°46'1 1.1 23.6
2017-Apr-18 20:29N 27°37' W 065°47'0 0.0 23.7
2017-Apr-18 20:01N 27°37' W 065°47'0 0.0 23.8
2017-Apr-18 19:57N 27°37' W 065°47'1 7.2 23.8
2017-Apr-18 19:52N 27°38' W 065°47'0 0.0 23.8
2017-Apr-18 18:21N 27°38' W 065°47'1 5.3 23.9
2017-Apr-18 18:12N 27°38' W 065°47'0 0.0 23.9
2017-Apr-18 15:01N 27°38' W 065°47'1 6.4 23.6
2017-Apr-18 14:56N 27°38' W 065°48'0 0.0 23.6
2017-Apr-18 14:11N 27°38' W 065°48'0 0.0 23.4
2017-Apr-18 14:06N 27°38' W 065°48'0 0.0 23.4
2017-Apr-18 13:18N 27°38' W 065°48'1 0.9 23.3
2017-Apr-18 12:37N 27°39' W 065°48'1 1.6 23.3
2017-Apr-18 12:06N 27°38' W 065°47'1 6.4 23.3
2017-Apr-18 12:01N 27°38' W 065°48'0 0.0 23.3
2017-Apr-18 10:57N 27°38' W 065°48'0 0.0 23.3
2017-Apr-18 10:50N 27°38' W 065°48'0 0.0 23.3
2017-Apr-18 10:34N 27°38' W 065°48'0 0.0 23.3
2017-Apr-18 10:32N 27°38' W 065°48'0 0.0 23.3
2017-Apr-18 10:25N 27°38' W 065°48'1 0.5 23.3
2017-Apr-18 09:15N 27°39' W 065°48'1 1.4 23.3
2017-Apr-18 08:50N 27°38' W 065°48'0 0.0 23.3
2017-Apr-18 08:48N 27°38' W 065°48'0 0.0 23.3
2017-Apr-18 08:40N 27°38' W 065°48'0 0.0 23.3
2017-Apr-18 08:36N 27°38' W 065°48'0 0.0 23.3
2017-Apr-18 07:01N 27°38' W 065°48'0 0.0 23.3
2017-Apr-18 06:56N 27°38' W 065°48'112.0 23.3
2017-Apr-18 06:53N 27°39' W 065°48'0 0.0 23.3
2017-Apr-18 02:36N 27°39' W 065°48'0 0.0 23.4
2017-Apr-18 02:30N 27°39' W 065°48'1 1.1 23.4
2017-Apr-18 01:48N 27°38' W 065°47'0 0.0 23.4
2017-Apr-18 00:52N 27°38' W 065°47'116.0 23.4
2017-Apr-18 00:49N 27°39' W 065°47'0 0.0 23.4
2017-Apr-18 00:13N 27°39' W 065°47'0 0.0 23.4
2017-Apr-18 00:04N 27°39' W 065°47'0 0.0 23.4
2017-Apr-17 23:43N 27°39' W 065°47'0 0.0 23.4
2017-Apr-17 23:39N 27°39' W 065°47'0 0.0 23.4
2017-Apr-17 23:34N 27°39' W 065°47'0 0.0 23.4
2017-Apr-17 23:25N 27°39' W 065°47'0 0.0 23.4
2017-Apr-17 23:20N 27°39' W 065°47'0 0.0 23.4
2017-Apr-17 22:37N 27°39' W 065°47'0 0.0 23.4
2017-Apr-17 22:03N 27°39' W 065°47'0 0.0 23.5
2017-Apr-17 21:59N 27°39' W 065°47'0 0.0 23.5
2017-Apr-17 21:45N 27°39' W 065°47'0 0.0 23.5
2017-Apr-17 20:57N 27°39' W 065°47'1 7.2 23.5
2017-Apr-17 20:52N 27°40' W 065°47'115.9 23.5
2017-Apr-17 20:50N 27°40' W 065°46'0 0.0 23.5
2017-Apr-17 20:12N 27°40' W 065°46'0 0.0 23.5
2017-Apr-17 20:05N 27°40' W 065°46'0 0.0 23.5
2017-Apr-17 18:32N 27°40' W 065°46'0 0.0 23.5
2017-Apr-17 18:27N 27°40' W 065°46'0 0.0 23.5
2017-Apr-17 18:23N 27°40' W 065°46'0 0.0 23.5
2017-Apr-17 15:20N 27°40' W 065°46'115.9 23.4
2017-Apr-17 15:18N 27°40' W 065°47'1 1.0 23.4
2017-Apr-17 14:30N 27°39' W 065°46'0 0.0 23.4
2017-Apr-17 13:40N 27°39' W 065°46'0 0.0 23.3
2017-Apr-17 13:38N 27°39' W 065°46'0 0.0 23.3
2017-Apr-17 12:52N 27°39' W 065°46'0 0.0 23.4
2017-Apr-17 12:21N 27°39' W 065°46'131.9 23.3
2017-Apr-17 12:20N 27°39' W 065°46'1 5.1 23.4
2017-Apr-17 12:13N 27°38' W 065°46'0 0.0 23.4
2017-Apr-17 11:23N 27°38' W 065°46'0 0.0 23.3
2017-Apr-17 11:03N 27°38' W 065°46'1 1.5 23.3
2017-Apr-17 10:42N 27°38' W 065°45'0 0.0 23.4
2017-Apr-17 09:45N 27°38' W 065°45'1 8.0 23.3
2017-Apr-17 09:39N 27°38' W 065°46'0 0.0 23.3
2017-Apr-17 09:27N 27°38' W 065°46'1 4.6 23.3
2017-Apr-17 09:20N 27°38' W 065°45'0 0.0 23.3
2017-Apr-17 08:49N 27°38' W 065°45'0 0.0 23.4
2017-Apr-17 07:06N 27°38' W 065°45'139.4 23.3
2017-Apr-17 07:04N 27°37' W 065°44'0 0.0 23.4
2017-Apr-17 02:53N 27°37' W 065°44'0 0.0 23.4
2017-Apr-17 02:51N 27°37' W 065°44'1 1.0 23.4
2017-Apr-17 02:04N 27°37' W 065°44'136.0 23.3
2017-Apr-17 02:03N 27°37' W 065°44'0 0.0 23.3
2017-Apr-17 01:18N 27°37' W 065°44'0 0.0 23.3
2017-Apr-17 01:15N 27°37' W 065°44'0 0.0 23.3
2017-Apr-17 01:09N 27°37' W 065°44'0 0.0 23.3
2017-Apr-17 00:30N 27°37' W 065°44'1 8.0 23.3
2017-Apr-17 00:26N 27°37' W 065°43'0 0.0 23.3
2017-Apr-16 23:52N 27°37' W 065°43'0 0.0
2017-Apr-16 23:51N 27°37' W 065°43'0 0.0 23.3
2017-Apr-16 23:45N 27°37' W 065°43'0 0.0 23.3
2017-Apr-16 23:35N 27°37' W 065°43'0 0.0 23.3
2017-Apr-16 22:59N 27°37' W 065°43'0 0.0 23.2
2017-Apr-16 22:14N 27°37' W 065°43'0 0.0 23.2
2017-Apr-16 22:11N 27°37' W 065°43'1 8.0 23.2
2017-Apr-16 22:05N 27°37' W 065°43'0 0.0 23.2
2017-Apr-16 21:23N 27°37' W 065°43'0 0.0 23.2
2017-Apr-16 21:14N 27°37' W 065°43'0 0.0 23.2
2017-Apr-16 20:24N 27°37' W 065°43'0 0.0 23.2
2017-Apr-16 20:20N 27°37' W 065°43'1 0.3 23.2
2017-Apr-16 18:44N 27°37' W 065°42'0 0.0 23.2
2017-Apr-16 18:39N 27°37' W 065°42'1 9.0 23.2
2017-Apr-16 18:35N 27°38' W 065°42'0 0.0 23.2
2017-Apr-16 15:40N 27°38' W 065°42'1 1.0
2017-Apr-16 14:52N 27°38' W 065°43'0 0.0 23.0
2017-Apr-16 14:00N 27°38' W 065°43'1 0.7 23.1
2017-Apr-16 13:14N 27°38' W 065°42'1 7.2 23.1
2017-Apr-16 13:09N 27°39' W 065°42'1 1.1 23.1
2017-Apr-16 12:35N 27°38' W 065°42'0 0.0 23.0
2017-Apr-16 12:31N 27°38' W 065°42'1 6.4 23.0
2017-Apr-16 12:26N 27°38' W 065°43'0 0.0 23.0
2017-Apr-16 12:17N 27°38' W 065°43'0 0.0 23.0
2017-Apr-16 11:48N 27°38' W 065°43'0 0.0 23.0
2017-Apr-16 11:36N 27°38' W 065°43'1 7.2 23.0
2017-Apr-16 11:31N 27°39' W 065°43'0 0.0 23.0
2017-Apr-16 10:55N 27°39' W 065°43'0 0.0 23.0
2017-Apr-16 10:51N 27°39' W 065°43'116.0 23.0
2017-Apr-16 10:48N 27°38' W 065°43'1 8.0 23.0
2017-Apr-16 10:44N 27°38' W 065°43'0 0.0 23.0
2017-Apr-16 10:07N 27°38' W 065°43'0 0.0 23.0
2017-Apr-16 10:01N 27°38' W 065°43'0 0.0 23.0
2017-Apr-16 09:53N 27°38' W 065°43'0 0.0 23.0
2017-Apr-16 09:49N 27°38' W 065°43'0 0.0 23.0
2017-Apr-16 09:03N 27°38' W 065°43'1 6.0 23.0
2017-Apr-16 08:55N 27°38' W 065°42'0 0.0 23.0
2017-Apr-16 08:16N 27°38' W 065°42'0 0.0 23.0
2017-Apr-16 07:25N 27°38' W 065°42'1 6.0 23.0
2017-Apr-16 07:19N 27°38' W 065°42'219.2 23.0
2017-Apr-16 07:14N 27°37' W 065°41'0 0.0 23.0
2017-Apr-16 03:17N 27°37' W 065°41'224.0 22.9
2017-Apr-16 03:13N 27°38' W 065°40'0 0.0 22.9
2017-Apr-16 02:28N 27°38' W 065°40'1 0.6 22.9
2017-Apr-16 01:37N 27°38' W 065°39'0 0.0 22.9
2017-Apr-16 01:30N 27°38' W 065°39'0 0.0 22.9
2017-Apr-16 00:52N 27°38' W 065°39'0 0.0 23.0
2017-Apr-16 00:49N 27°38' W 065°39'0 0.0 23.0
2017-Apr-16 00:45N 27°38' W 065°39'1 1.7 23.0
2017-Apr-16 00:24N 27°39' W 065°39'1 2.4 23.0
2017-Apr-16 00:04N 27°38' W 065°38'0 0.0 23.0
2017-Apr-15 23:52N 27°38' W 065°38'1 1.8 23.0
2017-Apr-15 23:25N 27°39' W 065°38'1 1.3 23.0
2017-Apr-15 22:47N 27°40' W 065°38'1 3.2 23.0
2017-Apr-15 22:37N 27°40' W 065°38'0 0.0
2017-Apr-15 22:26N 27°40' W 065°38'1 5.1 23.1
2017-Apr-15 22:19N 27°40' W 065°38'0 0.0 23.1
2017-Apr-15 21:49N 27°40' W 065°38'1 5.3 23.1
2017-Apr-15 21:40N 27°40' W 065°37'0 0.0 23.1
2017-Apr-15 21:06N 27°40' W 065°37'1 2.5 23.2
2017-Apr-15 20:35N 27°41' W 065°37'0 0.0 23.2
2017-Apr-15 20:32N 27°41' W 065°37'2 1.1 23.2
2017-Apr-15 18:52N 27°43' W 065°37'0 0.0 23.2
2017-Apr-15 18:50N 27°43' W 065°37'360.0 23.2
2017-Apr-15 18:47N 27°46' W 065°37'0 0.0 23.2
2017-Apr-15 17:10N 27°46' W 065°37'0 0.0 23.2
2017-Apr-15 15:57N 27°46' W 065°37'0 0.0 23.2
2017-Apr-15 15:13N 27°46' W 065°37'1 9.0 23.2
2017-Apr-15 15:05N 27°47' W 065°37'0 0.0 23.2
2017-Apr-15 14:23N 27°47' W 065°37'0 0.0 23.1
2017-Apr-15 14:16N 27°47' W 065°37'0 0.0 23.1
2017-Apr-15 13:36N 27°47' W 065°37'0 0.0 23.1
2017-Apr-15 13:33N 27°47' W 065°37'1 0.7 23.1
2017-Apr-15 12:45N 27°47' W 065°37'115.9
2017-Apr-15 12:43N 27°47' W 065°37'0 0.0 23.1
2017-Apr-15 12:37N 27°47' W 065°37'0 0.0 23.2
2017-Apr-15 12:12N 27°47' W 065°37'1 1.1 23.2
2017-Apr-15 11:03N 27°49' W 065°37'1 9.6 23.2
2017-Apr-15 10:58N 27°49' W 065°37'1 1.4 23.2
2017-Apr-15 10:33N 27°49' W 065°37'1 9.0 23.2
2017-Apr-15 10:29N 27°49' W 065°37'0 0.0 23.2
2017-Apr-15 10:26N 27°49' W 065°37'1 8.0 23.2
2017-Apr-15 10:20N 27°50' W 065°37'0 0.0 23.2
2017-Apr-15 09:12N 27°50' W 065°37'1 5.1 23.2
2017-Apr-15 09:05N 27°50' W 065°37'1 2.0 23.2
2017-Apr-15 08:47N 27°50' W 065°37'1 5.1 23.1
2017-Apr-15 08:40N 27°50' W 065°37'0 0.0 23.1
2017-Apr-15 07:36N 27°50' W 065°37'112.0 22.6
2017-Apr-15 07:33N 27°51' W 065°37'216.3 22.6
2017-Apr-15 07:24N 27°52' W 065°34'0 0.0 22.6
2017-Apr-15 03:34N 27°52' W 065°34'0 0.0 22.9
2017-Apr-15 02:49N 27°52' W 065°34'2 1.7 22.9
2017-Apr-15 01:52N 27°52' W 065°32'115.9 22.9
2017-Apr-15 01:50N 27°52' W 065°32'0 0.0 22.9
2017-Apr-15 01:06N 27°52' W 065°32'2 1.9 22.9
2017-Apr-15 00:16N 27°52' W 065°30'1 5.3 23.0
2017-Apr-15 00:10N 27°52' W 065°29'0 0.0 23.0
2017-Apr-14 23:19N 27°52' W 065°29'0 0.0 23.1
2017-Apr-14 23:13N 27°52' W 065°29'1 1.6 23.1
2017-Apr-14 22:34N 27°52' W 065°28'0 0.0 23.1
2017-Apr-14 22:30N 27°52' W 065°28'1 2.0 23.1
2017-Apr-14 22:14N 27°52' W 065°28'1 0.9 23.1
2017-Apr-14 21:39N 27°52' W 065°27'1 1.0 23.1
2017-Apr-14 20:51N 27°53' W 065°26'2 8.7
2017-Apr-14 20:40N 27°53' W 065°25'0 0.0 23.1
2017-Apr-14 20:31N 27°53' W 065°25'0 0.0 23.1
2017-Apr-14 19:05N 27°53' W 065°25'0 0.0 23.1
2017-Apr-14 19:02N 27°53' W 065°25'236.6 23.1
2017-Apr-14 18:58N 27°54' W 065°22'0 0.0 23.1
2017-Apr-14 17:24N 27°54' W 065°22'1 0.4 23.0
2017-Apr-14 15:35N 27°53' W 065°22'1 1.2 23.0
2017-Apr-14 14:43N 27°53' W 065°20'0 0.0 23.0
2017-Apr-14 14:38N 27°53' W 065°20'0 0.0 23.0
2017-Apr-14 13:51N 27°53' W 065°20'163.6 23.1
2017-Apr-14 13:50N 27°53' W 065°19'0 0.0 23.1
2017-Apr-14 13:03N 27°53' W 065°19'0 0.0 23.2
2017-Apr-14 13:00N 27°53' W 065°19'0 0.0 23.2
2017-Apr-14 12:53N 27°53' W 065°19'124.0 23.2
2017-Apr-14 12:51N 27°54' W 065°19'0 0.0 23.2
2017-Apr-14 12:37N 27°54' W 065°19'1 0.4 23.2
2017-Apr-14 11:16N 27°53' W 065°19'0 0.0 23.2
2017-Apr-14 11:13N 27°53' W 065°19'0 0.0 23.2
2017-Apr-14 11:06N 27°53' W 065°19'0 0.0 23.2
2017-Apr-14 10:57N 27°53' W 065°19'1 0.9 23.2
2017-Apr-14 09:31N 27°53' W 065°17'1 2.9 23.2
2017-Apr-14 09:20N 27°53' W 065°18'126.2 23.2
2017-Apr-14 09:17N 27°52' W 065°17'0 0.0 23.2
2017-Apr-14 09:11N 27°52' W 065°17'0 0.0 23.2
2017-Apr-14 07:48N 27°52' W 065°17'0 0.0 23.3
2017-Apr-14 07:42N 27°52' W 065°17'541.2 23.3
2017-Apr-14 07:35N 27°48' W 065°14'0 0.0 23.3
2017-Apr-14 06:01N 27°48' W 065°14'0 0.0 23.3
2017-Apr-14 02:20N 27°48' W 065°14'1 1.0 23.3
2017-Apr-14 01:30N 27°47' W 065°13'0 0.0 23.3
2017-Apr-14 01:26N 27°47' W 065°13'1 1.6 23.3
2017-Apr-14 00:40N 27°47' W 065°12'0 0.0 23.3
2017-Apr-14 00:33N 27°47' W 065°12'0 0.0 23.3
2017-Apr-14 00:25N 27°47' W 065°12'1 0.9 23.3
2017-Apr-13 23:48N 27°47' W 065°11'0 0.0 23.3
2017-Apr-13 23:44N 27°47' W 065°11'2 1.6 23.3
2017-Apr-13 22:42N 27°46' W 065°10'0 0.0 23.2
2017-Apr-13 22:38N 27°46' W 065°10'2 3.0 23.2
2017-Apr-13 22:06N 27°45' W 065°08'0 0.0 23.2
2017-Apr-13 21:06N 27°45' W 065°08'0 0.0 23.1
2017-Apr-13 20:51N 27°45' W 065°08'4257.4
2017-Apr-13 20:50N 27°46' W 065°04'0 0.0 23.1
2017-Apr-13 19:19N 27°46' W 065°04'0 0.0 23.0
2017-Apr-13 19:13N 27°46' W 065°04'0 0.0 23.0
2017-Apr-13 19:10N 27°46' W 065°04'0 0.0 23.0
2017-Apr-13 17:35N 27°46' W 065°04'0 0.0 22.9
2017-Apr-13 17:32N 27°46' W 065°04'0 0.0 22.9
2017-Apr-13 15:52N 27°46' W 065°04'0 0.0 22.7
2017-Apr-13 15:04N 27°46' W 065°04'118.3 22.7
2017-Apr-13 15:00N 27°45' W 065°02'0 0.0 22.7
2017-Apr-13 14:15N 27°45' W 065°02'1 9.6 22.7
2017-Apr-13 14:10N 27°46' W 065°02'0 0.0 22.7
2017-Apr-13 13:22N 27°46' W 065°02'0 0.0 22.7
2017-Apr-13 13:06N 27°46' W 065°02'136.6 22.7
2017-Apr-13 13:04N 27°45' W 065°01'1 0.3 22.7
2017-Apr-13 11:30N 27°45' W 065°00'1 5.3 22.8
2017-Apr-13 11:24N 27°45' W 064°59'0 0.0 22.8
2017-Apr-13 11:21N 27°45' W 064°59'   22.8
Track history (hours):
 
Tides and Currents Weather Stations Pressure Air Temp Water Temp Dewpoint Dewpoint Depression Visibility Wind Speed Wind Dir Waves Ship Positions

Drifting buoy 41991

Last reported at 2017-Apr-23 11:16 UTC. Time now 2017-Apr-23 11:52 UTC.
Position N 27°21' W 066°08'.

Water temperature 23.7 ° C

Date/timePositionNaut miles runAvg speedWind from/ knotsBaromVisibWave heightAir tempDewpointWater temp
2017-Apr-23 11:16N 27°21' W 066°08'0 0.0 23.7
2017-Apr-23 11:10N 27°21' W 066°08'0 0.0 23.7
2017-Apr-23 10:33N 27°21' W 066°08'1 0.7 23.7
2017-Apr-23 09:39N 27°20' W 066°08'0 0.0 23.7
2017-Apr-23 09:32N 27°20' W 066°08'0 0.0 23.7
2017-Apr-23 09:22N 27°20' W 066°08'1 8.0 23.8
2017-Apr-23 09:18N 27°20' W 066°08'1 0.7 23.8
2017-Apr-23 07:36N 27°19' W 066°08'3182.8 23.8
2017-Apr-23 07:35N 27°16' W 066°07'0 0.0 23.9
2017-Apr-23 05:56N 27°16' W 066°07'0 0.0 23.8
2017-Apr-23 02:33N 27°16' W 066°07'1 4.6 23.9
2017-Apr-23 02:26N 27°16' W 066°07'1 0.7 23.9
2017-Apr-23 01:43N 27°16' W 066°06'121.3 24.0
2017-Apr-23 01:40N 27°16' W 066°07'1 1.0 24.0
2017-Apr-23 00:52N 27°16' W 066°07'0 0.0 24.0
2017-Apr-23 00:50N 27°16' W 066°07'1 8.0 24.0
2017-Apr-23 00:46N 27°16' W 066°06'1 1.9 24.0
2017-Apr-23 00:21N 27°15' W 066°07'0 0.0 24.2
2017-Apr-23 00:05N 27°15' W 066°07'1 0.5 24.2
2017-Apr-22 22:47N 27°14' W 066°07'0 0.0 24.4
2017-Apr-22 22:38N 27°14' W 066°07'1 2.9 24.5
2017-Apr-22 22:27N 27°14' W 066°06'1 3.0 24.5
2017-Apr-22 22:15N 27°14' W 066°06'1 2.9 24.6
2017-Apr-22 22:04N 27°14' W 066°05'0 0.0 24.7
2017-Apr-22 21:00N 27°14' W 066°05'0 0.0 24.9
2017-Apr-22 20:53N 27°14' W 066°05'260.0
2017-Apr-22 20:51N 27°13' W 066°04'0 0.0 25.0
2017-Apr-22 20:31N 27°13' W 066°04'0 0.0 25.1
2017-Apr-22 19:16N 27°13' W 066°04'0 0.0 25.1
2017-Apr-22 19:11N 27°13' W 066°04'1 6.4 25.1
2017-Apr-22 19:06N 27°13' W 066°03'1 0.5 25.1
2017-Apr-22 17:33N 27°12' W 066°02'112.0 24.7
2017-Apr-22 17:29N 27°11' W 066°02'0 0.0 24.7
2017-Apr-22 15:17N 27°11' W 066°02'0 0.0 24.3
2017-Apr-22 15:14N 27°11' W 066°02'0 0.0 24.3
2017-Apr-22 14:33N 27°11' W 066°02'1 8.0 24.0
2017-Apr-22 14:29N 27°11' W 066°01'110.7 24.0
2017-Apr-22 14:26N 27°11' W 066°01'1 0.6 24.0
2017-Apr-22 13:36N 27°11' W 066°01'0 0.0 23.6
2017-Apr-22 13:34N 27°11' W 066°01'0 0.0 23.6
2017-Apr-22 13:04N 27°11' W 066°01'1 8.0 23.6
2017-Apr-22 13:00N 27°11' W 066°01'0 0.0 23.6
2017-Apr-22 12:56N 27°11' W 066°01'0 0.0 23.6
2017-Apr-22 12:49N 27°11' W 066°01'1 2.7
2017-Apr-22 12:37N 27°11' W 066°01'1 1.4 23.5
2017-Apr-22 11:45N 27°11' W 066°00'0 0.0 23.5
2017-Apr-22 11:25N 27°11' W 066°00'0 0.0 23.5
2017-Apr-22 11:17N 27°11' W 066°00'0 0.0 23.5
2017-Apr-22 10:57N 27°11' W 066°00'0 0.0 23.5
2017-Apr-22 10:50N 27°11' W 066°00'0 0.0 23.5
2017-Apr-22 10:07N 27°11' W 066°00'1 6.4 23.4
2017-Apr-22 10:02N 27°11' W 065°59'0 0.0 23.4
2017-Apr-22 09:39N 27°11' W 065°59'0 0.0 23.5
2017-Apr-22 09:33N 27°11' W 065°59'112.0 23.5
2017-Apr-22 09:30N 27°11' W 065°59'0 0.0 23.5
2017-Apr-22 09:19N 27°11' W 065°59'1 8.0 23.5
2017-Apr-22 09:15N 27°11' W 065°59'0 0.0 23.5
2017-Apr-22 08:29N 27°11' W 065°59'0 0.0 23.4
2017-Apr-22 07:51N 27°11' W 065°59'116.1 23.4
2017-Apr-22 07:48N 27°12' W 065°58'0 0.0 23.4
2017-Apr-22 06:10N 27°12' W 065°58'1 0.2 23.4
2017-Apr-22 02:52N 27°11' W 065°58'112.0 23.3
2017-Apr-22 02:48N 27°11' W 065°57'1 0.9 23.3
2017-Apr-22 02:06N 27°11' W 065°57'0 0.0 23.4
2017-Apr-22 02:00N 27°11' W 065°57'1 0.9 23.4
2017-Apr-22 01:07N 27°11' W 065°56'0 0.0 23.4
2017-Apr-22 00:33N 27°11' W 065°56'0 0.0 23.4
2017-Apr-22 00:26N 27°11' W 065°56'2 7.4 23.4
2017-Apr-22 00:13N 27°11' W 065°55'0 0.0 23.4
2017-Apr-21 23:29N 27°11' W 065°55'1 1.0 23.4
2017-Apr-21 22:58N 27°11' W 065°55'0 0.0 23.4
2017-Apr-21 22:51N 27°11' W 065°55'116.0
2017-Apr-21 22:49N 27°11' W 065°55'0 0.0 23.5
2017-Apr-21 22:48N 27°11' W 065°55'0 0.0 23.5
2017-Apr-21 22:37N 27°11' W 065°55'1 0.9 23.5
2017-Apr-21 21:18N 27°10' W 065°53'1 4.0 23.6
2017-Apr-21 21:06N 27°10' W 065°54'0 0.0 23.6
2017-Apr-21 21:04N 27°10' W 065°54'116.1 23.6
2017-Apr-21 21:01N 27°10' W 065°53'0 0.0 23.6
2017-Apr-21 20:52N 27°10' W 065°53'387.8 23.6
2017-Apr-21 20:50N 27°11' W 065°50'0 0.0 23.6
2017-Apr-21 19:26N 27°11' W 065°50'0 0.0 23.6
2017-Apr-21 19:22N 27°11' W 065°50'0 0.0 23.6
2017-Apr-21 19:19N 27°11' W 065°50'1 0.4 23.6
2017-Apr-21 17:44N 27°11' W 065°50'213.7 23.6
2017-Apr-21 17:37N 27°11' W 065°49'0 0.0
2017-Apr-21 15:36N 27°11' W 065°49'1 1.4 23.4
2017-Apr-21 14:51N 27°11' W 065°47'0 0.0 23.3
2017-Apr-21 14:48N 27°11' W 065°47'1 0.7 23.3
2017-Apr-21 13:53N 27°11' W 065°47'1 0.8 23.2
2017-Apr-21 13:12N 27°11' W 065°47'0 0.0 23.2
2017-Apr-21 13:06N 27°11' W 065°47'1 1.2 23.2
2017-Apr-21 12:13N 27°11' W 065°46'0 0.0 23.1
2017-Apr-21 11:37N 27°11' W 065°46'1 5.1 23.1
2017-Apr-21 11:30N 27°12' W 065°46'1 6.4 23.1
2017-Apr-21 11:25N 27°12' W 065°45'0 0.0 23.1
2017-Apr-21 10:40N 27°12' W 065°45'0 0.0 23.1
2017-Apr-21 10:36N 27°12' W 065°45'112.0 23.1
2017-Apr-21 10:33N 27°13' W 065°45'1 1.2 23.1
2017-Apr-21 09:52N 27°12' W 065°44'0 0.0 23.1
2017-Apr-21 09:45N 27°12' W 065°44'1 9.0 23.1
2017-Apr-21 09:41N 27°13' W 065°44'0 0.0 23.1
2017-Apr-21 09:02N 27°13' W 065°44'1 9.6 23.2
2017-Apr-21 08:57N 27°13' W 065°44'0 0.0 23.2
2017-Apr-21 08:05N 27°13' W 065°44'1 5.3 23.2
2017-Apr-21 07:59N 27°13' W 065°44'1 0.5 23.2
2017-Apr-21 06:21N 27°14' W 065°44'2 0.6 23.2
2017-Apr-21 03:12N 27°15' W 065°42'0 0.0 23.2
2017-Apr-21 03:09N 27°15' W 065°42'0 0.0 23.2
2017-Apr-21 02:26N 27°15' W 065°42'1 4.6 23.2
2017-Apr-21 02:19N 27°15' W 065°41'0 0.0 23.2
2017-Apr-21 01:34N 27°15' W 065°41'1 3.6 23.2
2017-Apr-21 01:25N 27°15' W 065°41'1 0.8 23.2
2017-Apr-21 00:44N 27°15' W 065°40'0 0.0 23.2
2017-Apr-21 00:41N 27°15' W 065°40'1 0.8 23.2
2017-Apr-20 23:53N 27°16' W 065°40'0 0.0 23.2
2017-Apr-20 23:31N 27°16' W 065°40'0 0.0 23.2
2017-Apr-20 23:22N 27°16' W 065°40'0 0.0 23.3
2017-Apr-20 23:06N 27°16' W 065°40'0 0.0 23.3
2017-Apr-20 23:04N 27°16' W 065°40'0 0.0 23.3
2017-Apr-20 23:03N 27°16' W 065°40'118.0 23.3
2017-Apr-20 23:01N 27°16' W 065°40'0 0.0 23.3
2017-Apr-20 21:51N 27°16' W 065°40'1 1.3 23.4
2017-Apr-20 21:26N 27°16' W 065°40'1 5.1 23.4
2017-Apr-20 21:19N 27°17' W 065°40'0 0.0 23.4
2017-Apr-20 21:14N 27°17' W 065°40'0 0.0 23.4
2017-Apr-20 19:38N 27°17' W 065°40'1 4.0 23.4
2017-Apr-20 19:30N 27°17' W 065°40'1 0.3 23.4
2017-Apr-20 17:52N 27°17' W 065°40'2 1.0 23.4
2017-Apr-20 15:56N 27°18' W 065°38'0 0.0 23.3
2017-Apr-20 15:07N 27°18' W 065°38'112.0 23.2
2017-Apr-20 15:03N 27°19' W 065°37'0 0.0 23.2
2017-Apr-20 14:18N 27°19' W 065°37'1 1.0 23.2
2017-Apr-20 13:32N 27°19' W 065°38'1 8.0 23.2
2017-Apr-20 13:28N 27°19' W 065°37'0 0.0 23.2
2017-Apr-20 13:25N 27°19' W 065°37'1 0.7 23.2
2017-Apr-20 12:31N 27°20' W 065°37'0 0.0 23.2
2017-Apr-20 11:47N 27°20' W 065°37'0 0.0 23.2
2017-Apr-20 11:43N 27°20' W 065°37'1 1.0 23.2
2017-Apr-20 11:06N 27°20' W 065°37'1 0.6 23.2
2017-Apr-20 10:02N 27°21' W 065°37'0 0.0 23.2
2017-Apr-20 09:53N 27°21' W 065°37'0 0.0 23.2
2017-Apr-20 09:33N 27°21' W 065°37'1 5.1 23.2
2017-Apr-20 09:26N 27°22' W 065°37'0 0.0 23.2
2017-Apr-20 08:16N 27°22' W 065°37'0 0.0 23.2
2017-Apr-20 08:13N 27°22' W 065°37'1 0.8 23.2
2017-Apr-20 06:33N 27°23' W 065°38'2 0.6 23.2
2017-Apr-20 03:29N 27°25' W 065°38'0 0.0 23.3
2017-Apr-20 02:46N 27°25' W 065°38'1 9.6 23.3
2017-Apr-20 02:41N 27°25' W 065°39'0 0.0 23.3
2017-Apr-20 01:51N 27°25' W 065°39'112.0 23.3
2017-Apr-20 01:48N 27°26' W 065°39'0 0.0 23.3
2017-Apr-20 01:07N 27°26' W 065°39'0 0.0 23.3
2017-Apr-20 00:59N 27°26' W 065°39'0 0.0 23.3
2017-Apr-20 00:56N 27°26' W 065°39'0 0.0 23.3
2017-Apr-20 00:15N 27°26' W 065°39'0 0.0 23.3
2017-Apr-20 00:08N 27°26' W 065°39'118.0 23.3
2017-Apr-20 00:06N 27°26' W 065°39'0 0.0 23.4
2017-Apr-20 00:01N 27°26' W 065°39'0 0.0 23.4
2017-Apr-19 23:25N 27°26' W 065°39'0 0.0 23.4
2017-Apr-19 23:18N 27°26' W 065°39'1 5.3 23.4
2017-Apr-19 23:12N 27°26' W 065°40'1 0.9 23.4
2017-Apr-19 22:21N 27°27' W 065°40'0 0.0 23.5
2017-Apr-19 21:49N 27°27' W 065°40'1 8.0 23.5
2017-Apr-19 21:40N 27°28' W 065°40'0 0.0 23.5
2017-Apr-19 21:31N 27°28' W 065°40'0 0.0 23.5
2017-Apr-19 19:49N 27°28' W 065°40'112.0 23.6
2017-Apr-19 19:46N 27°29' W 065°40'1 8.0 23.6
2017-Apr-19 19:40N 27°29' W 065°41'0 0.0 23.6
2017-Apr-19 18:06N 27°29' W 065°41'113.1 23.6
2017-Apr-19 18:00N 27°31' W 065°41'0 0.0 23.6
2017-Apr-19 15:31N 27°31' W 065°41'1 0.6 23.5
2017-Apr-19 14:41N 27°31' W 065°42'1 6.9 23.5
2017-Apr-19 14:34N 27°31' W 065°43'0 0.0 23.5
2017-Apr-19 13:53N 27°31' W 065°43'1 1.8 23.4
2017-Apr-19 13:35N 27°31' W 065°42'0 0.0 23.4
2017-Apr-19 12:57N 27°31' W 065°42'1 1.7 23.4
2017-Apr-19 12:14N 27°32' W 065°43'0 0.0 23.4
2017-Apr-19 12:00N 27°32' W 065°43'0 0.0 23.4
2017-Apr-19 11:55N 27°32' W 065°43'1 8.0 23.4
2017-Apr-19 11:49N 27°32' W 065°44'0 0.0 23.4
2017-Apr-19 11:41N 27°32' W 065°44'0 0.0 23.4
2017-Apr-19 10:33N 27°32' W 065°44'0 0.0 23.4
2017-Apr-19 10:19N 27°32' W 065°44'0 0.0 23.4
2017-Apr-19 10:13N 27°32' W 065°44'1 2.0 23.4
2017-Apr-19 09:57N 27°32' W 065°44'1 0.4 23.4
2017-Apr-19 08:28N 27°33' W 065°44'0 0.0 23.4
2017-Apr-19 08:24N 27°33' W 065°44'1 6.9 23.4
2017-Apr-19 08:17N 27°34' W 065°45'0 0.0
2017-Apr-19 06:48N 27°34' W 065°45'115.8 23.3
2017-Apr-19 06:43N 27°35' W 065°46'0 0.0 23.3
2017-Apr-19 03:03N 27°35' W 065°46'0 0.0 23.4
2017-Apr-19 02:15N 27°35' W 065°46'1 5.3 23.4
2017-Apr-19 02:06N 27°35' W 065°46'0 0.0 23.4
2017-Apr-19 01:31N 27°35' W 065°46'0 0.0 23.4
2017-Apr-19 01:25N 27°35' W 065°46'0 0.0 23.4
2017-Apr-19 01:22N 27°35' W 065°46'0 0.0 23.4
2017-Apr-19 00:35N 27°35' W 065°46'1 6.9 23.5
2017-Apr-19 00:28N 27°36' W 065°46'0 0.0 23.5
2017-Apr-18 23:47N 27°36' W 065°46'0 0.0 23.5
2017-Apr-18 23:29N 27°36' W 065°46'0 0.0 23.5
2017-Apr-18 23:24N 27°36' W 065°46'1 1.9 23.5
2017-Apr-18 22:50N 27°36' W 065°47'0 0.0 23.5
2017-Apr-18 22:47N 27°36' W 065°47'0 0.0 23.5
2017-Apr-18 22:14N 27°36' W 065°47'1 4.8 23.6
2017-Apr-18 22:04N 27°37' W 065°46'0 0.0 23.6
2017-Apr-18 21:51N 27°37' W 065°46'0 0.0 23.6
2017-Apr-18 21:44N 27°37' W 065°46'0 0.0 23.6
2017-Apr-18 21:12N 27°37' W 065°46'1 1.1 23.6
2017-Apr-18 20:29N 27°37' W 065°47'0 0.0 23.7
2017-Apr-18 20:01N 27°37' W 065°47'0 0.0 23.8
2017-Apr-18 19:57N 27°37' W 065°47'1 7.2 23.8
2017-Apr-18 19:52N 27°38' W 065°47'0 0.0 23.8
2017-Apr-18 18:21N 27°38' W 065°47'1 5.3 23.9
2017-Apr-18 18:12N 27°38' W 065°47'0 0.0 23.9
2017-Apr-18 15:01N 27°38' W 065°47'1 6.4 23.6
2017-Apr-18 14:56N 27°38' W 065°48'0 0.0 23.6
2017-Apr-18 14:11N 27°38' W 065°48'0 0.0 23.4
2017-Apr-18 14:06N 27°38' W 065°48'0 0.0 23.4
2017-Apr-18 13:18N 27°38' W 065°48'1 0.9 23.3
2017-Apr-18 12:37N 27°39' W 065°48'1 1.6 23.3
2017-Apr-18 12:06N 27°38' W 065°47'1 6.4 23.3
2017-Apr-18 12:01N 27°38' W 065°48'0 0.0 23.3
2017-Apr-18 10:57N 27°38' W 065°48'0 0.0 23.3
2017-Apr-18 10:50N 27°38' W 065°48'0 0.0 23.3
2017-Apr-18 10:34N 27°38' W 065°48'0 0.0 23.3
2017-Apr-18 10:32N 27°38' W 065°48'0 0.0 23.3
2017-Apr-18 10:25N 27°38' W 065°48'1 0.5 23.3
2017-Apr-18 09:15N 27°39' W 065°48'1 1.4 23.3
2017-Apr-18 08:50N 27°38' W 065°48'0 0.0 23.3
2017-Apr-18 08:48N 27°38' W 065°48'0 0.0 23.3
2017-Apr-18 08:40N 27°38' W 065°48'0 0.0 23.3
2017-Apr-18 08:36N 27°38' W 065°48'0 0.0 23.3
2017-Apr-18 07:01N 27°38' W 065°48'0 0.0 23.3
2017-Apr-18 06:56N 27°38' W 065°48'112.0 23.3
2017-Apr-18 06:53N 27°39' W 065°48'0 0.0 23.3
2017-Apr-18 02:36N 27°39' W 065°48'0 0.0 23.4
2017-Apr-18 02:30N 27°39' W 065°48'1 1.1 23.4
2017-Apr-18 01:48N 27°38' W 065°47'0 0.0 23.4
2017-Apr-18 00:52N 27°38' W 065°47'116.0 23.4
2017-Apr-18 00:49N 27°39' W 065°47'0 0.0 23.4
2017-Apr-18 00:13N 27°39' W 065°47'0 0.0 23.4
2017-Apr-18 00:04N 27°39' W 065°47'0 0.0 23.4
2017-Apr-17 23:43N 27°39' W 065°47'0 0.0 23.4
2017-Apr-17 23:39N 27°39' W 065°47'0 0.0 23.4
2017-Apr-17 23:34N 27°39' W 065°47'0 0.0 23.4
2017-Apr-17 23:25N 27°39' W 065°47'0 0.0 23.4
2017-Apr-17 23:20N 27°39' W 065°47'0 0.0 23.4
2017-Apr-17 22:37N 27°39' W 065°47'0 0.0 23.4
2017-Apr-17 22:03N 27°39' W 065°47'0 0.0 23.5
2017-Apr-17 21:59N 27°39' W 065°47'0 0.0 23.5
2017-Apr-17 21:45N 27°39' W 065°47'0 0.0 23.5
2017-Apr-17 20:57N 27°39' W 065°47'1 7.2 23.5
2017-Apr-17 20:52N 27°40' W 065°47'115.9 23.5
2017-Apr-17 20:50N 27°40' W 065°46'0 0.0 23.5
2017-Apr-17 20:12N 27°40' W 065°46'0 0.0 23.5
2017-Apr-17 20:05N 27°40' W 065°46'0 0.0 23.5
2017-Apr-17 18:32N 27°40' W 065°46'0 0.0 23.5
2017-Apr-17 18:27N 27°40' W 065°46'0 0.0 23.5
2017-Apr-17 18:23N 27°40' W 065°46'0 0.0 23.5
2017-Apr-17 15:20N 27°40' W 065°46'115.9 23.4
2017-Apr-17 15:18N 27°40' W 065°47'1 1.0 23.4
2017-Apr-17 14:30N 27°39' W 065°46'0 0.0 23.4
2017-Apr-17 13:40N 27°39' W 065°46'0 0.0 23.3
2017-Apr-17 13:38N 27°39' W 065°46'0 0.0 23.3
2017-Apr-17 12:52N 27°39' W 065°46'0 0.0 23.4
2017-Apr-17 12:21N 27°39' W 065°46'131.9 23.3
2017-Apr-17 12:20N 27°39' W 065°46'1 5.1 23.4
2017-Apr-17 12:13N 27°38' W 065°46'0 0.0 23.4
2017-Apr-17 11:23N 27°38' W 065°46'0 0.0 23.3
2017-Apr-17 11:03N 27°38' W 065°46'1 1.5 23.3
2017-Apr-17 10:42N 27°38' W 065°45'0 0.0 23.4
2017-Apr-17 09:45N 27°38' W 065°45'1 8.0 23.3
2017-Apr-17 09:39N 27°38' W 065°46'0 0.0 23.3
2017-Apr-17 09:27N 27°38' W 065°46'1 4.6 23.3
2017-Apr-17 09:20N 27°38' W 065°45'0 0.0 23.3
2017-Apr-17 08:49N 27°38' W 065°45'0 0.0 23.4
2017-Apr-17 07:06N 27°38' W 065°45'139.4 23.3
2017-Apr-17 07:04N 27°37' W 065°44'0 0.0 23.4
2017-Apr-17 02:53N 27°37' W 065°44'0 0.0 23.4
2017-Apr-17 02:51N 27°37' W 065°44'1 1.0 23.4
2017-Apr-17 02:04N 27°37' W 065°44'136.0 23.3
2017-Apr-17 02:03N 27°37' W 065°44'0 0.0 23.3
2017-Apr-17 01:18N 27°37' W 065°44'0 0.0 23.3
2017-Apr-17 01:15N 27°37' W 065°44'0 0.0 23.3
2017-Apr-17 01:09N 27°37' W 065°44'0 0.0 23.3
2017-Apr-17 00:30N 27°37' W 065°44'1 8.0 23.3
2017-Apr-17 00:26N 27°37' W 065°43'0 0.0 23.3
2017-Apr-16 23:52N 27°37' W 065°43'0 0.0
2017-Apr-16 23:51N 27°37' W 065°43'0 0.0 23.3
2017-Apr-16 23:45N 27°37' W 065°43'0 0.0 23.3
2017-Apr-16 23:35N 27°37' W 065°43'0 0.0 23.3
2017-Apr-16 22:59N 27°37' W 065°43'0 0.0 23.2
2017-Apr-16 22:14N 27°37' W 065°43'0 0.0 23.2
2017-Apr-16 22:11N 27°37' W 065°43'1 8.0 23.2
2017-Apr-16 22:05N 27°37' W 065°43'0 0.0 23.2
2017-Apr-16 21:23N 27°37' W 065°43'0 0.0 23.2
2017-Apr-16 21:14N 27°37' W 065°43'0 0.0 23.2
2017-Apr-16 20:24N 27°37' W 065°43'0 0.0 23.2
2017-Apr-16 20:20N 27°37' W 065°43'1 0.3 23.2
2017-Apr-16 18:44N 27°37' W 065°42'0 0.0 23.2
2017-Apr-16 18:39N 27°37' W 065°42'1 9.0 23.2
2017-Apr-16 18:35N 27°38' W 065°42'0 0.0 23.2
2017-Apr-16 15:40N 27°38' W 065°42'1 1.0
2017-Apr-16 14:52N 27°38' W 065°43'0 0.0 23.0
2017-Apr-16 14:00N 27°38' W 065°43'1 0.7 23.1
2017-Apr-16 13:14N 27°38' W 065°42'1 7.2 23.1
2017-Apr-16 13:09N 27°39' W 065°42'1 1.1 23.1
2017-Apr-16 12:35N 27°38' W 065°42'0 0.0 23.0
2017-Apr-16 12:31N 27°38' W 065°42'1 6.4 23.0
2017-Apr-16 12:26N 27°38' W 065°43'0 0.0 23.0
2017-Apr-16 12:17N 27°38' W 065°43'0 0.0 23.0
2017-Apr-16 11:48N 27°38' W 065°43'0 0.0 23.0
2017-Apr-16 11:36N 27°38' W 065°43'1 7.2 23.0
2017-Apr-16 11:31N 27°39' W 065°43'0 0.0 23.0
2017-Apr-16 10:55N 27°39' W 065°43'0 0.0 23.0
2017-Apr-16 10:51N 27°39' W 065°43'116.0 23.0
2017-Apr-16 10:48N 27°38' W 065°43'1 8.0 23.0
2017-Apr-16 10:44N 27°38' W 065°43'0 0.0 23.0
2017-Apr-16 10:07N 27°38' W 065°43'0 0.0 23.0
2017-Apr-16 10:01N 27°38' W 065°43'0 0.0 23.0
2017-Apr-16 09:53N 27°38' W 065°43'0 0.0 23.0
2017-Apr-16 09:49N 27°38' W 065°43'0 0.0 23.0
2017-Apr-16 09:03N 27°38' W 065°43'1 6.0 23.0
2017-Apr-16 08:55N 27°38' W 065°42'0 0.0 23.0
2017-Apr-16 08:16N 27°38' W 065°42'0 0.0 23.0
2017-Apr-16 07:25N 27°38' W 065°42'1 6.0 23.0
2017-Apr-16 07:19N 27°38' W 065°42'219.2 23.0
2017-Apr-16 07:14N 27°37' W 065°41'0 0.0 23.0
2017-Apr-16 03:17N 27°37' W 065°41'224.0 22.9
2017-Apr-16 03:13N 27°38' W 065°40'0 0.0 22.9
2017-Apr-16 02:28N 27°38' W 065°40'1 0.6 22.9
2017-Apr-16 01:37N 27°38' W 065°39'0 0.0 22.9
2017-Apr-16 01:30N 27°38' W 065°39'0 0.0 22.9
2017-Apr-16 00:52N 27°38' W 065°39'0 0.0 23.0
2017-Apr-16 00:49N 27°38' W 065°39'0 0.0 23.0
2017-Apr-16 00:45N 27°38' W 065°39'1 1.7 23.0
2017-Apr-16 00:24N 27°39' W 065°39'1 2.4 23.0
2017-Apr-16 00:04N 27°38' W 065°38'0 0.0 23.0
2017-Apr-15 23:52N 27°38' W 065°38'1 1.8 23.0
2017-Apr-15 23:25N 27°39' W 065°38'1 1.3 23.0
2017-Apr-15 22:47N 27°40' W 065°38'1 3.2 23.0
2017-Apr-15 22:37N 27°40' W 065°38'0 0.0
2017-Apr-15 22:26N 27°40' W 065°38'1 5.1 23.1
2017-Apr-15 22:19N 27°40' W 065°38'0 0.0 23.1
2017-Apr-15 21:49N 27°40' W 065°38'1 5.3 23.1
2017-Apr-15 21:40N 27°40' W 065°37'0 0.0 23.1
2017-Apr-15 21:06N 27°40' W 065°37'1 2.5 23.2
2017-Apr-15 20:35N 27°41' W 065°37'0 0.0 23.2
2017-Apr-15 20:32N 27°41' W 065°37'2 1.1 23.2
2017-Apr-15 18:52N 27°43' W 065°37'0 0.0 23.2
2017-Apr-15 18:50N 27°43' W 065°37'360.0 23.2
2017-Apr-15 18:47N 27°46' W 065°37'0 0.0 23.2
2017-Apr-15 17:10N 27°46' W 065°37'0 0.0 23.2
2017-Apr-15 15:57N 27°46' W 065°37'0 0.0 23.2
2017-Apr-15 15:13N 27°46' W 065°37'1 9.0 23.2
2017-Apr-15 15:05N 27°47' W 065°37'0 0.0 23.2
2017-Apr-15 14:23N 27°47' W 065°37'0 0.0 23.1
2017-Apr-15 14:16N 27°47' W 065°37'0 0.0 23.1
2017-Apr-15 13:36N 27°47' W 065°37'0 0.0 23.1
2017-Apr-15 13:33N 27°47' W 065°37'1 0.7 23.1
2017-Apr-15 12:45N 27°47' W 065°37'115.9
2017-Apr-15 12:43N 27°47' W 065°37'0 0.0 23.1
2017-Apr-15 12:37N 27°47' W 065°37'0 0.0 23.2
2017-Apr-15 12:12N 27°47' W 065°37'1 1.1 23.2
2017-Apr-15 11:03N 27°49' W 065°37'1 9.6 23.2
2017-Apr-15 10:58N 27°49' W 065°37'1 1.4 23.2
2017-Apr-15 10:33N 27°49' W 065°37'1 9.0 23.2
2017-Apr-15 10:29N 27°49' W 065°37'0 0.0 23.2
2017-Apr-15 10:26N 27°49' W 065°37'1 8.0 23.2
2017-Apr-15 10:20N 27°50' W 065°37'0 0.0 23.2
2017-Apr-15 09:12N 27°50' W 065°37'1 5.1 23.2
2017-Apr-15 09:05N 27°50' W 065°37'1 2.0 23.2
2017-Apr-15 08:47N 27°50' W 065°37'1 5.1 23.1
2017-Apr-15 08:40N 27°50' W 065°37'0 0.0 23.1
2017-Apr-15 07:36N 27°50' W 065°37'112.0 22.6
2017-Apr-15 07:33N 27°51' W 065°37'216.3 22.6
2017-Apr-15 07:24N 27°52' W 065°34'0 0.0 22.6
2017-Apr-15 03:34N 27°52' W 065°34'0 0.0 22.9
2017-Apr-15 02:49N 27°52' W 065°34'2 1.7 22.9
2017-Apr-15 01:52N 27°52' W 065°32'115.9 22.9
2017-Apr-15 01:50N 27°52' W 065°32'0 0.0 22.9
2017-Apr-15 01:06N 27°52' W 065°32'2 1.9 22.9
2017-Apr-15 00:16N 27°52' W 065°30'1 5.3 23.0
2017-Apr-15 00:10N 27°52' W 065°29'0 0.0 23.0
2017-Apr-14 23:19N 27°52' W 065°29'0 0.0 23.1
2017-Apr-14 23:13N 27°52' W 065°29'1 1.6 23.1
2017-Apr-14 22:34N 27°52' W 065°28'0 0.0 23.1
2017-Apr-14 22:30N 27°52' W 065°28'1 2.0 23.1
2017-Apr-14 22:14N 27°52' W 065°28'1 0.9 23.1
2017-Apr-14 21:39N 27°52' W 065°27'1 1.0 23.1
2017-Apr-14 20:51N 27°53' W 065°26'2 8.7
2017-Apr-14 20:40N 27°53' W 065°25'0 0.0 23.1
2017-Apr-14 20:31N 27°53' W 065°25'0 0.0 23.1
2017-Apr-14 19:05N 27°53' W 065°25'0 0.0 23.1
2017-Apr-14 19:02N 27°53' W 065°25'236.6 23.1
2017-Apr-14 18:58N 27°54' W 065°22'0 0.0 23.1
2017-Apr-14 17:24N 27°54' W 065°22'1 0.4 23.0
2017-Apr-14 15:35N 27°53' W 065°22'1 1.2 23.0
2017-Apr-14 14:43N 27°53' W 065°20'0 0.0 23.0
2017-Apr-14 14:38N 27°53' W 065°20'0 0.0 23.0
2017-Apr-14 13:51N 27°53' W 065°20'163.6 23.1
2017-Apr-14 13:50N 27°53' W 065°19'0 0.0 23.1
2017-Apr-14 13:03N 27°53' W 065°19'0 0.0 23.2
2017-Apr-14 13:00N 27°53' W 065°19'0 0.0 23.2
2017-Apr-14 12:53N 27°53' W 065°19'124.0 23.2
2017-Apr-14 12:51N 27°54' W 065°19'0 0.0 23.2
2017-Apr-14 12:37N 27°54' W 065°19'1 0.4 23.2
2017-Apr-14 11:16N 27°53' W 065°19'0 0.0 23.2
2017-Apr-14 11:13N 27°53' W 065°19'0 0.0 23.2
2017-Apr-14 11:06N 27°53' W 065°19'0 0.0 23.2
2017-Apr-14 10:57N 27°53' W 065°19'1 0.9 23.2
2017-Apr-14 09:31N 27°53' W 065°17'1 2.9 23.2
2017-Apr-14 09:20N 27°53' W 065°18'126.2 23.2
2017-Apr-14 09:17N 27°52' W 065°17'0 0.0 23.2
2017-Apr-14 09:11N 27°52' W 065°17'0 0.0 23.2
2017-Apr-14 07:48N 27°52' W 065°17'0 0.0 23.3
2017-Apr-14 07:42N 27°52' W 065°17'541.2 23.3
2017-Apr-14 07:35N 27°48' W 065°14'0 0.0 23.3
2017-Apr-14 06:01N 27°48' W 065°14'0 0.0 23.3
2017-Apr-14 02:20N 27°48' W 065°14'1 1.0 23.3
2017-Apr-14 01:30N 27°47' W 065°13'0 0.0 23.3
2017-Apr-14 01:26N 27°47' W 065°13'1 1.6 23.3
2017-Apr-14 00:40N 27°47' W 065°12'0 0.0 23.3
2017-Apr-14 00:33N 27°47' W 065°12'0 0.0 23.3
2017-Apr-14 00:25N 27°47' W 065°12'1 0.9 23.3
2017-Apr-13 23:48N 27°47' W 065°11'0 0.0 23.3
2017-Apr-13 23:44N 27°47' W 065°11'2 1.6 23.3
2017-Apr-13 22:42N 27°46' W 065°10'0 0.0 23.2
2017-Apr-13 22:38N 27°46' W 065°10'2 3.0 23.2
2017-Apr-13 22:06N 27°45' W 065°08'0 0.0 23.2
2017-Apr-13 21:06N 27°45' W 065°08'0 0.0 23.1
2017-Apr-13 20:51N 27°45' W 065°08'4257.4
2017-Apr-13 20:50N 27°46' W 065°04'0 0.0 23.1
2017-Apr-13 19:19N 27°46' W 065°04'0 0.0 23.0
2017-Apr-13 19:13N 27°46' W 065°04'0 0.0 23.0
2017-Apr-13 19:10N 27°46' W 065°04'0 0.0 23.0
2017-Apr-13 17:35N 27°46' W 065°04'0 0.0 22.9
2017-Apr-13 17:32N 27°46' W 065°04'0 0.0 22.9
2017-Apr-13 15:52N 27°46' W 065°04'0 0.0 22.7
2017-Apr-13 15:04N 27°46' W 065°04'118.3 22.7
2017-Apr-13 15:00N 27°45' W 065°02'0 0.0 22.7
2017-Apr-13 14:15N 27°45' W 065°02'1 9.6 22.7
2017-Apr-13 14:10N 27°46' W 065°02'0 0.0 22.7
2017-Apr-13 13:22N 27°46' W 065°02'0 0.0 22.7
2017-Apr-13 13:06N 27°46' W 065°02'136.6 22.7
2017-Apr-13 13:04N 27°45' W 065°01'1 0.3 22.7
2017-Apr-13 11:30N 27°45' W 065°00'1 5.3 22.8
2017-Apr-13 11:24N 27°45' W 064°59'0 0.0 22.8
2017-Apr-13 11:21N 27°45' W 064°59'   22.8

Dump ship's entire track history